createdAt,value
2019-04-23T00:01:47.000Z,50.21
2019-04-23T00:04:13.309Z,50.46
2019-04-23T00:06:52.359Z,50.43
2019-04-23T00:09:26.019Z,50.86
2019-04-23T00:14:20.680Z,50.83
2019-04-23T00:16:47.490Z,50.79
2019-04-23T00:19:16.932Z,51.13
2019-04-23T00:21:57.486Z,50.73
2019-04-23T00:27:23.871Z,50.73
2019-04-23T00:32:15.120Z,51.18
2019-04-23T00:34:47.693Z,50.84
2019-04-23T00:37:28.383Z,51.01
2019-04-23T00:39:52.937Z,51.16
2019-04-23T00:42:23.876Z,51.15
2019-04-23T00:47:20.934Z,50.88
2019-04-23T00:49:51.553Z,50.87
2019-04-23T00:52:20.442Z,51.09
2019-04-23T00:57:24.245Z,50.71
2019-04-23T00:59:53.586Z,50.47
2019-04-23T01:02:17.775Z,49.86
2019-04-23T01:04:49.665Z,50.07
2019-04-23T01:07:18.747Z,50.42
2019-04-23T01:10:03.140Z,50.67
2019-04-23T01:12:31.646Z,50.74
2019-04-23T01:14:56.040Z,50.80
2019-04-23T01:17:33.699Z,50.76
2019-04-23T01:20:14.799Z,50.50
2019-04-23T01:22:27.470Z,50.67
2019-04-23T01:25:08.461Z,50.60
2019-04-23T01:27:55.904Z,51.03
2019-04-23T01:30:28.292Z,50.21
2019-04-23T01:33:03.005Z,50.70
2019-04-23T01:35:26.960Z,51.54
2019-04-23T01:38:02.601Z,51.16
2019-04-23T01:43:04.188Z,51.00
2019-04-23T01:45:45.495Z,51.37
2019-04-23T01:47:59.782Z,51.56
2019-04-23T01:50:40.373Z,51.58
2019-04-23T01:53:16.615Z,51.42
2019-04-23T01:55:53.028Z,51.92
2019-04-23T01:58:38.261Z,51.46
2019-04-23T02:00:43.263Z,51.62
2019-04-23T02:03:09.402Z,51.68
2019-04-23T02:05:41.533Z,52.03
2019-04-23T02:08:07.862Z,51.78
2019-04-23T02:13:16.505Z,52.17
2019-04-23T02:15:44.059Z,51.55
2019-04-23T02:18:18.289Z,51.26
2019-04-23T02:20:48.091Z,52.05
2019-04-23T02:28:31.174Z,52.57
2019-04-23T02:31:18.719Z,52.34
2019-04-23T02:33:43.819Z,53.01
2019-04-23T02:36:02.531Z,52.53
2019-04-23T02:41:13.114Z,52.47
2019-04-23T02:43:22.051Z,53.05
2019-04-23T02:46:05.544Z,53.24
2019-04-23T02:48:36.165Z,53.37
2019-04-23T02:51:04.405Z,53.22
2019-04-23T02:53:51.240Z,52.86
2019-04-23T02:58:42.208Z,53.79
2019-04-23T03:03:42.769Z,53.51
2019-04-23T03:06:05.970Z,53.44
2019-04-23T03:08:40.014Z,53.31
2019-04-23T03:11:26.749Z,53.95
2019-04-23T03:19:04.284Z,54.37
2019-04-23T03:24:28.623Z,54.01
2019-04-23T03:29:40.188Z,54.91
2019-04-23T03:39:32.556Z,55.34
2019-04-23T03:41:54.450Z,55.54
2019-04-23T03:44:31.443Z,55.86
2019-04-23T03:46:49.756Z,55.51
2019-04-23T03:49:21.411Z,56.20
2019-04-23T03:52:01.316Z,55.57
2019-04-23T04:07:05.594Z,57.01
2019-04-23T04:11:54.968Z,56.63
2019-04-23T04:19:31.952Z,57.16
2019-04-23T04:21:58.423Z,57.48
2019-04-23T04:24:36.893Z,57.71
2019-04-23T04:35:05.088Z,57.20
2019-04-23T04:37:27.323Z,57.02
2019-04-23T04:39:33.507Z,56.93
2019-04-23T04:41:58.866Z,57.07
2019-04-23T04:49:39.081Z,57.21
2019-04-23T04:52:21.864Z,56.75
2019-04-23T04:57:15.038Z,56.75
2019-04-23T04:59:51.136Z,57.05
2019-04-23T05:02:20.920Z,56.06
2019-04-23T05:04:48.232Z,56.73
2019-04-23T05:07:11.064Z,56.31
2019-04-23T05:09:48.453Z,56.37
2019-04-23T05:14:52.748Z,55.72
2019-04-23T05:22:15.783Z,54.75
2019-04-23T05:27:15.559Z,53.90
2019-04-23T05:29:51.181Z,53.47
2019-04-23T05:32:12.177Z,53.85
2019-04-23T05:34:52.125Z,53.21
2019-04-23T05:37:28.304Z,53.24
2019-04-23T05:40:15.987Z,53.01
2019-04-23T05:42:19.357Z,52.54
2019-04-23T05:47:39.923Z,51.84
2019-04-23T05:49:57.020Z,51.25
2019-04-23T05:52:27.827Z,51.31
2019-04-23T05:54:56.315Z,51.15
2019-04-23T05:57:20.731Z,51.03
2019-04-23T05:59:54.731Z,50.14
2019-04-23T06:02:26.202Z,48.04
2019-04-23T06:04:57.294Z,47.22
2019-04-23T06:09:59.425Z,46.28
2019-04-23T06:12:31.440Z,46.19
2019-04-23T06:15:05.164Z,45.28
2019-04-23T06:17:29.762Z,45.22
2019-04-23T06:22:38.002Z,43.38
2019-04-23T06:25:21.655Z,42.64
2019-04-23T06:27:35.522Z,41.61
2019-04-23T06:30:01.091Z,41.39
2019-04-23T06:32:55.227Z,41.90
2019-04-23T06:35:06.354Z,41.17
2019-04-23T06:37:49.847Z,41.03
2019-04-23T06:40:08.232Z,40.81
2019-04-23T06:42:39.298Z,39.95
2019-04-23T06:45:26.422Z,38.35
2019-04-23T06:47:37.515Z,37.49
2019-04-23T06:50:03.591Z,36.88
2019-04-23T06:52:31.425Z,36.18
2019-04-23T06:55:09.139Z,36.87
2019-04-23T06:57:33.681Z,37.00
2019-04-23T07:00:06.581Z,37.44
2019-04-23T07:02:39.440Z,37.40
2019-04-23T07:05:28.040Z,37.62
2019-04-23T07:10:10.690Z,37.52
2019-04-23T07:12:44.770Z,38.23
2019-04-23T07:15:25.103Z,37.13
2019-04-23T07:17:34.887Z,36.04
2019-04-23T07:20:13.129Z,34.73
2019-04-23T07:22:46.347Z,33.87
2019-04-23T07:25:12.791Z,33.49
2019-04-23T07:27:41.087Z,33.04
2019-04-23T07:30:16.753Z,32.45
2019-04-23T07:32:44.048Z,32.51
2019-04-23T07:35:15.786Z,32.43
2019-04-23T07:37:51.782Z,32.97
2019-04-23T07:43:10.198Z,30.83
2019-04-23T07:45:57.340Z,31.01
2019-04-23T07:48:18.521Z,31.26
2019-04-23T07:51:10.886Z,29.17
2019-04-23T07:53:44.369Z,28.66
2019-04-23T07:56:05.873Z,27.79
2019-04-23T07:58:27.329Z,27.27
2019-04-23T08:00:48.773Z,25.69
2019-04-23T08:03:20.997Z,26.67
2019-04-23T08:06:10.176Z,26.33
2019-04-23T08:08:39.710Z,27.32
2019-04-23T08:16:18.035Z,28.04
2019-04-23T08:18:45.209Z,28.68
2019-04-23T08:21:10.460Z,28.19
2019-04-23T08:23:50.683Z,27.98
2019-04-23T08:26:42.826Z,29.07
2019-04-23T08:31:40.353Z,30.50
2019-04-23T08:34:17.135Z,31.86
2019-04-23T08:39:02.090Z,30.63
2019-04-23T08:41:46.822Z,30.36
2019-04-23T08:44:23.874Z,30.43
2019-04-23T08:46:56.873Z,31.17
2019-04-23T08:54:48.276Z,32.33
2019-04-23T08:59:38.887Z,32.69
2019-04-23T09:04:41.761Z,32.94
2019-04-23T09:07:13.418Z,32.57
2019-04-23T09:12:08.167Z,32.97
2019-04-23T09:14:39.943Z,33.13
2019-04-23T09:17:11.242Z,32.63
2019-04-23T09:19:56.276Z,32.88
2019-04-23T09:22:17.204Z,32.17
2019-04-23T09:24:44.799Z,32.47
2019-04-23T09:27:17.979Z,32.67
2019-04-23T09:29:49.161Z,32.55
2019-04-23T09:32:23.901Z,32.05
2019-04-23T09:37:26.548Z,32.60
2019-04-23T09:40:04.821Z,32.23
2019-04-23T09:45:34.176Z,32.27
2019-04-23T09:48:15.648Z,31.62
2019-04-23T09:50:38.480Z,31.99
2019-04-23T09:53:17.670Z,31.51
2019-04-23T10:00:51.455Z,31.42
2019-04-23T10:03:02.342Z,31.74
2019-04-23T10:05:29.145Z,32.22
2019-04-23T10:07:54.454Z,31.74
2019-04-23T10:10:18.598Z,31.55
2019-04-23T10:12:48.218Z,31.38
2019-04-23T10:15:25.077Z,30.99
2019-04-23T10:17:49.966Z,31.34
2019-04-23T10:20:20.480Z,31.43
2019-04-23T10:22:50.469Z,32.05
2019-04-23T10:25:19.294Z,31.48
2019-04-23T10:28:09.304Z,31.37
2019-04-23T10:30:36.632Z,30.76
2019-04-23T10:33:05.644Z,30.87
2019-04-23T10:35:44.561Z,31.16
2019-04-23T10:38:10.400Z,31.45
2019-04-23T10:40:38.895Z,31.20
2019-04-23T10:43:05.433Z,30.62
2019-04-23T10:46:08.710Z,30.41
2019-04-23T10:49:11.451Z,30.75
2019-04-23T10:56:47.840Z,30.17
2019-04-23T10:59:35.425Z,30.42
2019-04-23T11:02:28.077Z,30.63
2019-04-23T11:12:16.337Z,30.00
2019-04-23T11:14:43.192Z,29.26
2019-04-23T11:17:21.253Z,29.52
2019-04-23T11:19:52.844Z,29.54
2019-04-23T11:22:30.209Z,29.39
2019-04-23T11:24:48.874Z,28.77
2019-04-23T11:27:14.658Z,28.44
2019-04-23T11:29:38.843Z,27.92
2019-04-23T11:37:23.448Z,28.65
2019-04-23T11:39:53.868Z,28.75
2019-04-23T11:42:17.285Z,29.15
2019-04-23T11:44:56.679Z,28.40
2019-04-23T11:47:45.622Z,27.74
2019-04-23T11:52:30.321Z,27.88
2019-04-23T11:54:53.832Z,27.52
2019-04-23T11:57:41.244Z,27.80
2019-04-23T12:02:44.061Z,28.20
2019-04-23T12:05:30.106Z,28.14
2019-04-23T12:07:49.943Z,28.69
2019-04-23T12:10:44.480Z,27.99
2019-04-23T12:13:03.886Z,28.53
2019-04-23T12:18:12.955Z,27.54
2019-04-23T12:28:08.592Z,27.25
2019-04-23T12:30:45.168Z,27.43
2019-04-23T12:33:24.984Z,27.22
2019-04-23T12:35:45.374Z,27.77
2019-04-23T12:38:18.939Z,27.63
2019-04-23T12:41:04.985Z,28.37
2019-04-23T12:43:19.119Z,27.72
2019-04-23T12:45:50.476Z,28.53
2019-04-23T12:48:35.085Z,27.92
2019-04-23T12:51:08.424Z,27.21
2019-04-23T12:53:32.134Z,27.97
2019-04-23T12:56:17.006Z,27.32
2019-04-23T12:58:26.682Z,27.64
2019-04-23T13:00:53.919Z,26.99
2019-04-23T13:03:29.929Z,27.15
2019-04-23T13:05:54.077Z,27.84
2019-04-23T13:10:57.294Z,28.11
2019-04-23T13:16:06.331Z,28.20
2019-04-23T13:18:34.106Z,28.43
2019-04-23T13:21:15.845Z,27.72
2019-04-23T13:26:09.000Z,28.32
2019-04-23T13:31:12.468Z,28.68
2019-04-23T13:36:29.625Z,27.89
2019-04-23T13:38:41.815Z,28.89
2019-04-23T13:43:40.138Z,28.63
2019-04-23T13:48:42.150Z,28.20
2019-04-23T13:54:07.884Z,28.53
2019-04-23T13:56:53.876Z,28.38
2019-04-23T13:59:37.802Z,28.86
2019-04-23T14:01:54.767Z,27.94
2019-04-23T14:04:21.365Z,28.10
2019-04-23T14:06:46.411Z,28.43
2019-04-23T14:09:25.517Z,28.15
2019-04-23T14:11:45.231Z,28.80
2019-04-23T14:14:41.800Z,28.30
2019-04-23T14:17:02.270Z,28.48
2019-04-23T14:19:23.194Z,29.07
2019-04-23T14:22:07.078Z,28.20
2019-04-23T14:24:32.385Z,28.17
2019-04-23T14:26:58.204Z,28.39
2019-04-23T14:29:28.196Z,29.59
2019-04-23T14:32:08.931Z,29.11
2019-04-23T14:34:37.751Z,29.31
2019-04-23T14:37:04.275Z,29.29
2019-04-23T14:39:40.521Z,28.28
2019-04-23T14:42:30.789Z,28.47
2019-04-23T14:44:44.105Z,28.73
2019-04-23T14:49:58.901Z,29.20
2019-04-23T14:52:23.175Z,28.81
2019-04-23T14:55:28.004Z,28.72
2019-04-23T14:57:32.672Z,29.13
2019-04-23T14:59:57.385Z,28.81
2019-04-23T15:02:28.696Z,29.25
2019-04-23T15:05:07.726Z,29.21
2019-04-23T15:07:28.233Z,29.18
2019-04-23T15:10:01.512Z,29.50
2019-04-23T15:17:41.304Z,29.13
2019-04-23T15:23:02.568Z,29.60
2019-04-23T15:28:06.211Z,29.82
2019-04-23T15:30:15.761Z,30.03
2019-04-23T15:33:07.546Z,29.80
2019-04-23T15:40:25.258Z,30.09
2019-04-23T15:43:04.228Z,29.98
2019-04-23T15:45:31.864Z,30.99
2019-04-23T15:48:04.999Z,30.11
2019-04-23T15:50:38.521Z,29.68
2019-04-23T15:53:01.392Z,29.71
2019-04-23T15:55:35.060Z,30.05
2019-04-23T15:58:17.443Z,30.43
2019-04-23T16:00:42.904Z,30.20
2019-04-23T16:02:39.399Z,30.43
2019-04-23T16:05:12.219Z,30.71
2019-04-23T16:08:01.804Z,30.50
2019-04-23T16:10:52.336Z,30.56
2019-04-23T16:13:27.616Z,30.69
2019-04-23T16:15:48.154Z,30.99
2019-04-23T16:18:28.387Z,31.10
2019-04-23T16:20:54.592Z,31.12
2019-04-23T16:23:21.547Z,31.04
2019-04-23T16:25:49.778Z,31.55
2019-04-23T16:28:38.410Z,31.41
2019-04-23T16:30:56.460Z,31.61
2019-04-23T16:33:16.676Z,31.40
2019-04-23T16:36:01.942Z,31.65
2019-04-23T16:38:36.649Z,31.55
2019-04-23T16:40:47.657Z,32.04
2019-04-23T16:43:42.421Z,31.90
2019-04-23T16:46:04.172Z,31.98
2019-04-23T16:48:53.199Z,31.99
2019-04-23T16:51:12.175Z,32.36
2019-04-23T16:53:47.044Z,32.42
2019-04-23T16:56:16.422Z,32.48
2019-04-23T16:59:03.672Z,32.74
2019-04-23T17:01:12.368Z,32.76
2019-04-23T17:03:49.771Z,32.84
2019-04-23T17:06:29.475Z,32.74
2019-04-23T17:11:18.884Z,33.00
2019-04-23T17:16:26.963Z,33.28
2019-04-23T17:21:16.605Z,33.34
2019-04-23T17:28:54.523Z,33.82
2019-04-23T17:31:32.763Z,33.88
2019-04-23T17:37:03.258Z,34.08
2019-04-23T17:39:14.589Z,34.53
2019-04-23T17:42:05.175Z,34.73
2019-04-23T17:47:06.415Z,34.95
2019-04-23T17:49:41.940Z,35.12
2019-04-23T17:52:14.393Z,35.39
2019-04-23T17:54:41.244Z,35.70
2019-04-23T18:00:12.044Z,35.75
2019-04-23T18:05:02.548Z,36.10
2019-04-23T18:07:41.078Z,36.44
2019-04-23T18:10:09.898Z,36.58
2019-04-23T18:12:39.013Z,36.70
2019-04-23T18:15:03.428Z,36.84
2019-04-23T18:22:46.908Z,37.23
2019-04-23T18:25:17.094Z,37.52
2019-04-23T18:30:19.218Z,38.38
2019-04-23T18:35:49.608Z,38.49
2019-04-23T18:38:13.889Z,38.85
2019-04-23T18:40:54.591Z,39.01
2019-04-23T18:43:26.870Z,39.41
2019-04-23T18:53:45.598Z,39.97
2019-04-23T18:56:19.196Z,40.39
2019-04-23T19:01:28.094Z,40.70
2019-04-23T19:06:44.153Z,41.04
2019-04-23T19:14:56.288Z,41.97
2019-04-23T19:17:36.005Z,41.98
2019-04-23T19:19:44.361Z,41.71
2019-04-23T19:22:29.219Z,41.70
2019-04-23T19:24:43.529Z,42.27
2019-04-23T19:29:59.739Z,43.38
2019-04-23T19:32:06.594Z,43.31
2019-04-23T19:34:53.213Z,43.92
2019-04-23T19:37:23.141Z,43.97
2019-04-23T19:39:46.429Z,44.53
2019-04-23T19:47:19.359Z,45.83
2019-04-23T19:49:52.600Z,46.37
2019-04-23T19:52:21.863Z,46.56
2019-04-23T19:54:56.832Z,46.66
2019-04-23T19:57:22.156Z,46.96
2019-04-23T19:59:58.323Z,46.98
2019-04-23T20:02:47.829Z,47.38
2019-04-23T20:16:40.024Z,49.12
2019-04-23T20:19:26.992Z,49.87
2019-04-23T20:22:00.228Z,49.84
2019-04-23T20:24:28.614Z,50.51
2019-04-23T20:27:13.968Z,50.37
2019-04-23T20:29:50.849Z,51.50
2019-04-23T20:35:06.638Z,51.79
2019-04-23T20:40:48.559Z,53.05
2019-04-23T20:43:28.984Z,52.86
2019-04-23T20:45:55.797Z,53.57
2019-04-23T20:48:25.189Z,53.25
2019-04-23T20:50:52.356Z,52.47
2019-04-23T20:53:30.999Z,54.07
2019-04-23T20:58:49.992Z,54.15
2019-04-23T21:01:33.831Z,53.69
2019-04-23T21:03:55.260Z,54.75
2019-04-23T21:06:32.714Z,55.63
2019-04-23T21:11:36.673Z,55.53
2019-04-23T21:14:27.238Z,55.37
2019-04-23T21:16:37.523Z,55.71
2019-04-23T21:19:06.751Z,55.48
2019-04-23T21:21:49.336Z,56.44
2019-04-23T21:24:11.312Z,56.04
2019-04-23T21:26:46.057Z,56.27
2019-04-23T21:29:13.534Z,56.32
2019-04-23T21:31:48.015Z,56.64
2019-04-23T21:34:18.032Z,56.68
2019-04-23T21:36:44.517Z,56.99
2019-04-23T21:39:34.569Z,56.57
2019-04-23T21:44:26.758Z,57.22
2019-04-23T21:47:04.556Z,57.39
2019-04-23T21:49:50.717Z,56.99
2019-04-23T21:52:11.541Z,57.38
2019-04-23T21:54:47.202Z,58.09
2019-04-23T21:57:09.139Z,57.63
2019-04-23T21:59:41.378Z,57.56
2019-04-23T22:02:12.782Z,58.41
2019-04-23T22:04:45.678Z,58.18
2019-04-23T22:07:14.988Z,58.36
2019-04-23T22:09:50.412Z,58.19
2019-04-23T22:12:15.368Z,58.56
2019-04-23T22:14:47.255Z,59.24
2019-04-23T22:19:55.249Z,58.66
2019-04-23T22:22:22.173Z,58.47
2019-04-23T22:24:48.234Z,58.99
2019-04-23T22:27:35.444Z,58.84
2019-04-23T22:29:45.064Z,59.09
2019-04-23T22:32:23.394Z,58.54
2019-04-23T22:34:55.922Z,59.19
2019-04-23T22:37:23.538Z,60.36
2019-04-23T22:39:52.414Z,59.81
2019-04-23T22:42:34.482Z,59.75
2019-04-23T22:45:00.583Z,60.08
2019-04-23T22:47:15.538Z,59.34
2019-04-23T22:52:21.643Z,60.00
2019-04-23T22:55:07.628Z,59.42
2019-04-23T22:57:28.833Z,60.45
2019-04-23T23:00:04.640Z,60.78
2019-04-23T23:02:46.664Z,60.71
2019-04-23T23:07:48.960Z,60.47
2019-04-23T23:10:20.867Z,60.85
2019-04-23T23:13:02.305Z,60.78
2019-04-23T23:15:12.605Z,61.84
2019-04-23T23:17:45.289Z,61.44
2019-04-23T23:20:18.711Z,61.26
2019-04-23T23:25:16.826Z,61.01
2019-04-23T23:27:41.392Z,61.89
2019-04-23T23:32:47.522Z,61.17
2019-04-23T23:35:24.532Z,61.80
2019-04-23T23:37:46.569Z,61.27
2019-04-23T23:40:23.707Z,61.09
2019-04-23T23:42:55.818Z,61.34
2019-04-23T23:45:19.179Z,62.51
2019-04-23T23:47:46.166Z,62.51
2019-04-23T23:50:22.272Z,62.56
2019-04-23T23:53:00.183Z,61.87
2019-04-23T23:55:16.618Z,62.62
2019-04-23T23:57:41.271Z,62.74
